RORH(METAR)
08/25 10:00
RORH 250100Z 16016KT 8000 FEW012 BKNXXX 30/26 Q1009 RMK A2980=
戻る
トップページへ戻る
IMOC Co,.Ltd.